createdAt,value
2022-09-13T00:00:33.407Z,13.60
2022-09-13T00:03:00.319Z,14.30
2022-09-13T00:05:27.116Z,13.23
2022-09-13T00:07:53.873Z,15.53
2022-09-13T00:10:20.607Z,15.03
2022-09-13T00:12:50.364Z,15.60
2022-09-13T00:15:17.018Z,13.67
2022-09-13T00:17:43.596Z,13.67
2022-09-13T00:20:10.426Z,11.33
2022-09-13T00:25:21.624Z,12.70
2022-09-13T00:27:48.350Z,22.73
2022-09-13T00:30:15.041Z,24.33
2022-09-13T00:32:41.717Z,20.17
2022-09-13T00:35:08.809Z,15.67
2022-09-13T00:37:35.407Z,11.47
2022-09-13T00:40:02.281Z,12.70
2022-09-13T00:42:29.709Z,12.80
2022-09-13T00:45:00.324Z,11.17
2022-09-13T00:47:42.230Z,17.20
2022-09-13T00:50:14.708Z,16.13
2022-09-13T00:52:46.102Z,13.53
2022-09-13T00:55:36.434Z,13.07
2022-09-13T00:58:05.073Z,12.53
2022-09-13T01:00:31.735Z,11.03
2022-09-13T01:02:58.974Z,15.77
2022-09-13T01:05:27.891Z,17.00
2022-09-13T01:07:55.291Z,13.33
2022-09-13T01:10:23.690Z,13.67
2022-09-13T01:12:57.413Z,12.93
2022-09-13T01:15:24.308Z,12.93
2022-09-13T01:17:51.280Z,11.60
2022-09-13T01:20:17.963Z,12.83
2022-09-13T01:22:44.552Z,12.20
2022-09-13T01:25:29.900Z,11.03
2022-09-13T01:28:11.712Z,11.57
2022-09-13T01:30:40.665Z,12.03
2022-09-13T01:33:26.302Z,11.43
2022-09-13T01:36:02.448Z,12.87
2022-09-13T01:38:48.932Z,11.93
2022-09-13T01:41:25.048Z,10.13
2022-09-13T01:44:11.945Z,11.77
2022-09-13T01:46:49.952Z,12.17
2022-09-13T01:49:16.856Z,11.00
2022-09-13T01:51:45.678Z,10.57
2022-09-13T01:54:13.967Z,9.77
2022-09-13T01:56:46.140Z,11.37
2022-09-13T01:59:28.227Z,10.87
2022-09-13T02:01:56.609Z,10.03
2022-09-13T02:04:24.344Z,10.90
2022-09-13T02:06:59.683Z,11.43
2022-09-13T02:09:26.424Z,11.17
2022-09-13T02:12:01.478Z,10.77
2022-09-13T02:14:29.289Z,12.23
2022-09-13T02:17:04.122Z,13.27
2022-09-13T02:19:36.637Z,10.50
2022-09-13T02:22:03.749Z,12.80
2022-09-13T02:24:34.296Z,14.03
2022-09-13T02:27:02.813Z,12.50
2022-09-13T02:29:29.464Z,13.20
2022-09-13T02:31:58.587Z,9.20
2022-09-13T02:34:26.382Z,9.63
2022-09-13T02:36:53.200Z,10.47
2022-09-13T02:39:20.596Z,10.10
2022-09-13T02:41:56.083Z,9.90
2022-09-13T02:44:32.073Z,11.83
2022-09-13T02:47:08.220Z,11.17
2022-09-13T02:49:53.174Z,12.87
2022-09-13T02:52:28.804Z,13.67
2022-09-13T02:55:00.985Z,14.57
2022-09-13T02:57:31.397Z,12.07
2022-09-13T02:59:58.267Z,11.43
2022-09-13T03:02:26.069Z,9.63
2022-09-13T03:04:53.062Z,8.80
2022-09-13T03:07:19.729Z,8.77
2022-09-13T03:09:48.148Z,11.90
2022-09-13T03:12:17.924Z,10.50
2022-09-13T03:14:44.716Z,9.00
2022-09-13T03:17:11.335Z,13.37
2022-09-13T03:19:50.306Z,23.10
2022-09-13T03:22:26.437Z,11.43
2022-09-13T03:25:16.396Z,19.70
2022-09-13T03:27:43.165Z,23.33
2022-09-13T03:30:11.641Z,17.20
2022-09-13T03:32:41.363Z,14.30
2022-09-13T03:35:11.075Z,10.20
2022-09-13T03:37:43.590Z,9.10
2022-09-13T03:40:11.970Z,14.97
2022-09-13T03:42:43.430Z,12.73
2022-09-13T03:45:10.194Z,12.00
2022-09-13T03:47:36.939Z,18.13
2022-09-13T03:50:04.390Z,17.17
2022-09-13T03:52:31.009Z,15.93
2022-09-13T03:54:57.864Z,28.07
2022-09-13T03:57:24.545Z,19.40
2022-09-13T03:59:52.117Z,16.20
2022-09-13T04:02:18.968Z,10.37
2022-09-13T04:04:45.929Z,16.97
2022-09-13T04:07:13.743Z,14.20
2022-09-13T04:09:40.737Z,11.80
2022-09-13T04:12:08.449Z,11.07
2022-09-13T04:14:35.509Z,10.63
2022-09-13T04:17:02.700Z,9.30
2022-09-13T04:19:29.435Z,12.20
2022-09-13T04:21:56.322Z,12.30
2022-09-13T04:24:24.840Z,9.97
2022-09-13T04:26:51.460Z,11.27
2022-09-13T04:29:18.397Z,10.07
2022-09-13T04:31:45.540Z,10.27
2022-09-13T04:34:12.853Z,12.83
2022-09-13T04:36:39.951Z,11.97
2022-09-13T04:39:07.020Z,11.47
2022-09-13T04:41:34.749Z,12.97
2022-09-13T04:44:01.947Z,9.93
2022-09-13T04:46:28.804Z,13.80
2022-09-13T04:48:55.711Z,10.67
2022-09-13T04:51:22.383Z,8.83
2022-09-13T04:53:55.465Z,13.53
2022-09-13T04:56:23.330Z,11.47
2022-09-13T04:58:53.289Z,12.10
2022-09-13T05:01:21.002Z,14.50
2022-09-13T05:03:47.960Z,15.57
2022-09-13T05:06:18.136Z,13.47
2022-09-13T05:08:45.231Z,12.83
2022-09-13T05:11:12.072Z,10.47
2022-09-13T05:13:39.571Z,12.37
2022-09-13T05:16:06.737Z,11.80
2022-09-13T05:18:34.110Z,15.33
2022-09-13T05:21:01.029Z,13.23
2022-09-13T05:23:27.790Z,11.43
2022-09-13T05:25:57.780Z,12.67
2022-09-13T05:28:24.516Z,13.43
2022-09-13T05:30:54.769Z,14.00
2022-09-13T05:33:21.594Z,15.60
2022-09-13T05:35:50.562Z,13.47
2022-09-13T05:38:17.404Z,13.20
2022-09-13T05:40:44.098Z,13.70
2022-09-13T05:43:10.807Z,10.43
2022-09-13T05:48:21.809Z,13.30
2022-09-13T05:50:58.184Z,12.67
2022-09-13T05:53:25.328Z,10.97
2022-09-13T05:55:52.013Z,10.20
2022-09-13T05:58:18.701Z,12.27
2022-09-13T06:00:45.307Z,10.33
2022-09-13T06:03:12.113Z,10.43
2022-09-13T06:05:38.786Z,10.00
2022-09-13T06:08:05.549Z,9.40
2022-09-13T06:10:32.282Z,9.90
2022-09-13T06:12:59.016Z,8.27
2022-09-13T06:15:25.645Z,8.97
2022-09-13T06:17:52.334Z,7.03
2022-09-13T06:20:18.951Z,5.40
2022-09-13T06:22:47.443Z,8.97
2022-09-13T06:25:14.156Z,7.83
2022-09-13T06:27:40.987Z,6.60
2022-09-13T06:30:08.949Z,6.10
2022-09-13T06:32:35.865Z,6.13
2022-09-13T06:35:02.496Z,5.93
2022-09-13T06:37:29.352Z,5.33
2022-09-13T06:39:56.532Z,7.87
2022-09-13T06:42:23.300Z,10.03
2022-09-13T06:44:51.205Z,7.87
2022-09-13T06:47:18.173Z,7.90
2022-09-13T06:49:45.814Z,6.37
2022-09-13T06:52:12.615Z,5.87
2022-09-13T06:54:39.612Z,8.00
2022-09-13T06:57:06.415Z,6.17
2022-09-13T06:59:35.299Z,4.90
2022-09-13T07:02:02.333Z,5.53
2022-09-13T07:04:31.691Z,8.47
2022-09-13T07:06:58.877Z,4.63
2022-09-13T07:09:25.992Z,7.60
2022-09-13T07:11:54.597Z,5.73
2022-09-13T07:14:22.515Z,7.73
2022-09-13T07:16:49.327Z,7.40
2022-09-13T07:19:16.757Z,6.20
2022-09-13T07:21:43.646Z,7.63
2022-09-13T07:24:10.405Z,6.13
2022-09-13T07:26:37.511Z,4.00
2022-09-13T07:29:05.688Z,5.53
2022-09-13T07:31:33.565Z,4.60
2022-09-13T07:34:00.982Z,6.13
2022-09-13T07:36:28.421Z,4.00
2022-09-13T07:38:55.342Z,7.53
2022-09-13T07:41:22.614Z,4.27
2022-09-13T07:43:49.943Z,5.50
2022-09-13T07:46:18.032Z,7.00
2022-09-13T07:48:45.523Z,6.57
2022-09-13T07:51:16.200Z,7.23
2022-09-13T07:53:43.496Z,5.63
2022-09-13T07:56:11.706Z,5.70
2022-09-13T07:58:39.089Z,4.83
2022-09-13T08:01:07.128Z,4.53
2022-09-13T08:03:34.624Z,6.23
2022-09-13T08:06:02.140Z,4.77
2022-09-13T08:08:29.369Z,4.47
2022-09-13T08:10:56.235Z,6.47
2022-09-13T08:13:23.348Z,4.27
2022-09-13T08:15:50.123Z,5.63
2022-09-13T08:18:17.378Z,4.67
2022-09-13T08:20:44.159Z,6.57
2022-09-13T08:23:11.289Z,6.73
2022-09-13T08:25:38.774Z,6.03
2022-09-13T08:28:06.322Z,5.90
2022-09-13T08:30:35.980Z,6.87
2022-09-13T08:33:05.901Z,6.57
2022-09-13T08:35:32.653Z,6.50
2022-09-13T08:37:59.892Z,5.27
2022-09-13T08:40:31.131Z,6.77
2022-09-13T08:43:00.319Z,7.20
2022-09-13T08:45:27.204Z,6.63
2022-09-13T08:47:57.262Z,6.37
2022-09-13T08:50:26.228Z,9.30
2022-09-13T08:52:55.977Z,7.57
2022-09-13T08:55:36.869Z,5.47
2022-09-13T08:58:06.645Z,5.97
2022-09-13T09:00:35.782Z,6.07
2022-09-13T09:03:11.438Z,5.20
2022-09-13T09:05:56.427Z,5.60
2022-09-13T09:08:43.559Z,8.23
2022-09-13T09:11:22.582Z,6.70
2022-09-13T09:14:03.626Z,7.63
2022-09-13T09:16:50.784Z,6.30
2022-09-13T09:19:17.648Z,6.03
2022-09-13T09:21:44.504Z,9.07
2022-09-13T09:24:13.151Z,7.47
2022-09-13T09:26:40.206Z,6.97
2022-09-13T09:29:16.007Z,6.57
2022-09-13T09:31:52.896Z,7.27
2022-09-13T09:34:42.803Z,6.90
2022-09-13T09:37:21.515Z,6.80
2022-09-13T09:39:48.787Z,7.97
2022-09-13T09:42:17.466Z,8.33
2022-09-13T09:44:45.411Z,8.30
2022-09-13T09:47:29.612Z,7.27
2022-09-13T09:50:12.073Z,7.13
2022-09-13T09:52:57.221Z,9.87
2022-09-13T09:55:30.693Z,9.30
2022-09-13T09:57:58.521Z,8.37
2022-09-13T10:00:26.634Z,8.67
2022-09-13T10:02:54.356Z,8.40
2022-09-13T10:05:21.395Z,9.83
2022-09-13T10:07:54.006Z,8.30
2022-09-13T10:10:25.123Z,8.43
2022-09-13T10:12:52.733Z,8.90
2022-09-13T10:15:20.280Z,11.40
2022-09-13T10:18:16.792Z,9.27
2022-09-13T10:21:02.431Z,8.60
2022-09-13T10:23:29.791Z,8.87
2022-09-13T10:26:06.611Z,7.67
2022-09-13T10:28:34.332Z,8.07
2022-09-13T10:31:11.140Z,9.37
2022-09-13T10:33:42.541Z,6.93
2022-09-13T10:36:13.997Z,6.37
2022-09-13T10:38:46.036Z,7.10
2022-09-13T10:41:21.321Z,7.27
2022-09-13T10:43:48.130Z,8.27
2022-09-13T10:46:15.253Z,7.60
2022-09-13T10:48:46.288Z,6.60
2022-09-13T10:51:36.993Z,9.07
2022-09-13T10:54:17.637Z,6.20
2022-09-13T10:56:45.284Z,6.30
2022-09-13T10:59:17.911Z,6.20
2022-09-13T11:01:47.958Z,7.73
2022-09-13T11:04:14.855Z,6.47
2022-09-13T11:06:42.387Z,8.60
2022-09-13T11:09:13.866Z,8.53
2022-09-13T11:11:40.602Z,6.73
2022-09-13T11:14:25.645Z,7.00
2022-09-13T11:17:18.745Z,5.97
2022-09-13T11:19:45.492Z,5.33
2022-09-13T11:22:18.295Z,5.33
2022-09-13T11:24:47.660Z,5.47
2022-09-13T11:27:17.179Z,6.07
2022-09-13T11:29:50.658Z,5.50
2022-09-13T11:32:40.772Z,5.77
2022-09-13T11:35:26.162Z,5.57
2022-09-13T11:37:52.992Z,6.90
2022-09-13T11:40:30.432Z,5.70
2022-09-13T11:42:57.272Z,5.60
2022-09-13T11:45:27.020Z,5.70
2022-09-13T11:47:53.895Z,5.50
2022-09-13T11:50:29.473Z,5.87
2022-09-13T11:53:10.238Z,6.20
2022-09-13T11:55:40.010Z,5.90
2022-09-13T11:58:10.383Z,5.30
2022-09-13T12:00:40.318Z,5.67
2022-09-13T12:03:07.165Z,5.87
2022-09-13T12:05:35.347Z,6.00
2022-09-13T12:08:13.590Z,6.23
2022-09-13T12:10:56.781Z,5.63
2022-09-13T12:13:27.394Z,7.20
2022-09-13T12:27:06.089Z,5.07
2022-09-13T12:34:30.678Z,5.37
2022-09-13T12:40:56.070Z,6.00
2022-09-13T12:43:58.165Z,7.53
2022-09-13T12:46:31.345Z,7.40
2022-09-13T12:49:16.866Z,8.10
2022-09-13T12:51:49.756Z,7.67
2022-09-13T12:54:23.293Z,7.07
2022-09-13T12:57:04.200Z,6.23
2022-09-13T12:59:35.769Z,6.13
2022-09-13T13:02:21.399Z,6.70
2022-09-13T13:04:49.305Z,7.87
2022-09-13T13:07:19.799Z,6.60
2022-09-13T13:09:48.475Z,6.93
2022-09-13T13:12:34.345Z,6.30
2022-09-13T13:15:21.231Z,6.10
2022-09-13T13:17:48.713Z,6.97
2022-09-13T13:20:34.212Z,6.53
2022-09-13T13:23:24.073Z,6.70
2022-09-13T13:26:09.925Z,6.43
2022-09-13T13:28:46.407Z,6.97
2022-09-13T13:31:30.061Z,6.50
2022-09-13T13:33:58.885Z,6.40
2022-09-13T13:36:29.529Z,6.73
2022-09-13T13:38:56.605Z,6.53
2022-09-13T13:41:38.588Z,6.43
2022-09-13T13:44:32.069Z,7.10
2022-09-13T13:47:07.847Z,7.77
2022-09-13T13:49:35.259Z,6.83
2022-09-13T13:52:10.705Z,6.67
2022-09-13T13:54:47.456Z,6.77
2022-09-13T13:57:32.759Z,7.63
2022-09-13T14:00:17.839Z,8.37
2022-09-13T14:02:50.439Z,8.20
2022-09-13T14:05:41.370Z,6.87
2022-09-13T14:08:14.335Z,9.77
2022-09-13T14:10:53.215Z,8.17
2022-09-13T14:13:20.884Z,7.07
2022-09-13T14:15:51.830Z,7.40
2022-09-13T14:18:39.135Z,8.67
2022-09-13T14:21:18.378Z,7.73
2022-09-13T14:23:45.267Z,7.47
2022-09-13T14:26:11.945Z,8.17
2022-09-13T14:28:39.130Z,8.47
2022-09-13T14:31:06.005Z,7.60
2022-09-13T14:33:35.059Z,7.33
2022-09-13T14:36:05.224Z,8.03
2022-09-13T14:38:36.002Z,9.23
2022-09-13T14:41:12.502Z,7.80
2022-09-13T14:43:39.876Z,12.83
2022-09-13T14:46:15.681Z,7.57
2022-09-13T14:48:49.591Z,12.37
2022-09-13T14:51:21.051Z,8.33
2022-09-13T14:53:48.915Z,8.13
2022-09-13T14:56:20.950Z,9.93
2022-09-13T14:58:58.434Z,10.97
2022-09-13T15:01:29.656Z,9.33
2022-09-13T15:03:57.109Z,9.87
2022-09-13T15:06:31.165Z,10.93
2022-09-13T15:09:00.846Z,11.37
2022-09-13T15:11:35.718Z,11.63
2022-09-13T15:14:22.942Z,11.60
2022-09-13T15:16:50.738Z,12.83
2022-09-13T15:19:17.446Z,13.47
2022-09-13T15:21:45.706Z,15.43
2022-09-13T15:24:20.214Z,16.60
2022-09-13T15:26:46.972Z,15.77
2022-09-13T15:29:18.249Z,16.70
2022-09-13T15:31:45.728Z,17.77
2022-09-13T15:34:21.800Z,15.47
2022-09-13T15:37:11.966Z,18.53
2022-09-13T15:39:45.818Z,17.00
2022-09-13T15:42:13.700Z,19.20
2022-09-13T15:44:42.625Z,17.23
2022-09-13T15:47:10.863Z,18.07
2022-09-13T15:49:38.014Z,19.00
2022-09-13T15:52:05.747Z,20.23
2022-09-13T15:54:33.454Z,18.30
2022-09-13T15:57:00.385Z,19.40
2022-09-13T15:59:27.268Z,18.73
2022-09-13T16:01:54.362Z,17.80
2022-09-13T16:04:21.223Z,18.20
2022-09-13T16:06:48.164Z,17.23
2022-09-13T16:09:20.473Z,17.33
2022-09-13T16:11:47.852Z,16.87
2022-09-13T16:14:14.765Z,17.07
2022-09-13T16:16:41.925Z,17.83
2022-09-13T16:19:14.014Z,16.90
2022-09-13T16:21:41.999Z,18.63
2022-09-13T16:24:08.634Z,16.87
2022-09-13T16:26:35.646Z,17.37
2022-09-13T16:29:02.353Z,15.23
2022-09-13T16:31:29.175Z,16.07
2022-09-13T16:33:56.030Z,12.53
2022-09-13T16:36:23.041Z,15.97
2022-09-13T16:38:49.786Z,13.27
2022-09-13T16:41:17.983Z,12.77
2022-09-13T16:43:44.919Z,13.80
2022-09-13T16:46:14.745Z,15.30
2022-09-13T16:48:41.871Z,15.30
2022-09-13T16:51:09.357Z,12.00
2022-09-13T16:53:38.741Z,11.83
2022-09-13T16:56:07.773Z,10.43
2022-09-13T16:58:37.983Z,11.90
2022-09-13T17:01:07.849Z,11.03
2022-09-13T17:03:36.301Z,10.47
2022-09-13T17:06:04.240Z,10.60
2022-09-13T17:08:33.353Z,12.93
2022-09-13T17:13:45.546Z,12.10
2022-09-13T17:19:24.202Z,12.40
2022-09-13T17:24:37.370Z,13.13
2022-09-13T17:29:50.995Z,16.37
2022-09-13T17:32:17.657Z,13.73
2022-09-13T17:34:44.427Z,15.77
2022-09-13T17:37:11.780Z,15.30
2022-09-13T17:39:39.076Z,13.30
2022-09-13T17:42:07.924Z,13.23
2022-09-13T17:44:34.840Z,14.57
2022-09-13T17:49:47.773Z,15.10
2022-09-13T17:52:14.468Z,13.17
2022-09-13T17:54:41.435Z,17.10
2022-09-13T17:57:08.186Z,16.57
2022-09-13T18:02:19.905Z,23.07
2022-09-13T18:04:49.329Z,20.20
2022-09-13T18:07:16.837Z,17.90
2022-09-13T18:09:43.984Z,15.93
2022-09-13T18:12:11.837Z,16.30
2022-09-13T18:14:38.707Z,12.33
2022-09-13T18:17:12.969Z,11.77
2022-09-13T18:19:46.425Z,13.10
2022-09-13T18:22:15.227Z,11.37
2022-09-13T18:24:42.223Z,10.67
2022-09-13T18:27:09.111Z,10.83
2022-09-13T18:29:36.068Z,11.63
2022-09-13T18:32:03.807Z,14.67
2022-09-13T18:34:30.537Z,12.00
2022-09-13T18:36:57.508Z,14.17
2022-09-13T18:39:24.512Z,16.60
2022-09-13T18:41:51.282Z,15.30
2022-09-13T18:44:18.040Z,16.47
2022-09-13T18:46:46.345Z,19.83
2022-09-13T18:49:13.888Z,21.23
2022-09-13T18:51:46.617Z,21.20
2022-09-13T18:54:15.555Z,23.10
2022-09-13T18:56:44.154Z,20.50
2022-09-13T18:59:11.318Z,19.87
2022-09-13T19:01:39.504Z,20.33
2022-09-13T19:04:07.799Z,19.70
2022-09-13T19:06:35.465Z,16.63
2022-09-13T19:09:02.254Z,14.60
2022-09-13T19:11:48.641Z,16.33
2022-09-13T19:14:34.721Z,13.67
2022-09-13T19:17:05.507Z,15.90
2022-09-13T19:19:35.498Z,15.90
2022-09-13T19:22:02.398Z,16.13
2022-09-13T19:24:31.426Z,16.13
2022-09-13T19:26:58.378Z,12.67
2022-09-13T19:29:26.940Z,14.27
2022-09-13T19:31:55.874Z,14.40
2022-09-13T19:34:23.631Z,16.27
2022-09-13T19:36:52.628Z,17.23
2022-09-13T19:39:19.403Z,13.07
2022-09-13T19:41:46.061Z,11.20
2022-09-13T19:44:13.115Z,10.20
2022-09-13T19:46:40.022Z,11.83
2022-09-13T19:49:08.336Z,12.03
2022-09-13T19:51:37.012Z,11.00
2022-09-13T19:54:04.630Z,11.17
2022-09-13T19:56:33.126Z,12.80
2022-09-13T19:59:00.332Z,11.03
2022-09-13T20:01:28.093Z,9.57
2022-09-13T20:03:58.754Z,10.40
2022-09-13T20:06:26.885Z,8.60
2022-09-13T20:08:58.584Z,8.37
2022-09-13T20:11:29.209Z,10.43
2022-09-13T20:13:56.537Z,10.40
2022-09-13T20:16:24.230Z,7.80
2022-09-13T20:18:53.107Z,9.40
2022-09-13T20:21:22.015Z,9.37
2022-09-13T20:23:48.735Z,10.00
2022-09-13T20:26:17.142Z,10.30
2022-09-13T20:28:45.403Z,8.23
2022-09-13T20:31:13.002Z,8.43
2022-09-13T20:33:40.119Z,6.93
2022-09-13T20:36:07.680Z,9.30
2022-09-13T20:38:34.528Z,9.83
2022-09-13T20:41:05.803Z,9.00
2022-09-13T20:43:33.879Z,10.73
2022-09-13T20:46:02.477Z,9.13
2022-09-13T20:48:29.302Z,11.70
2022-09-13T20:51:24.458Z,8.87
2022-09-13T20:54:00.653Z,11.23
2022-09-13T20:56:28.227Z,6.87
2022-09-13T20:58:57.670Z,8.30
2022-09-13T21:01:24.877Z,8.67
2022-09-13T21:03:52.221Z,9.13
2022-09-13T21:06:19.688Z,10.63
2022-09-13T21:08:49.519Z,7.67
2022-09-13T21:11:20.576Z,7.27
2022-09-13T21:13:50.185Z,6.73
2022-09-13T21:16:17.519Z,9.17
2022-09-13T21:18:44.420Z,7.03
2022-09-13T21:21:12.820Z,7.03
2022-09-13T21:23:39.882Z,6.27
2022-09-13T21:26:07.631Z,6.63
2022-09-13T21:31:22.763Z,6.77
2022-09-13T21:33:53.356Z,7.33
2022-09-13T21:36:20.573Z,7.33
2022-09-13T21:38:47.182Z,7.47
2022-09-13T21:41:15.234Z,7.07
2022-09-13T21:43:41.994Z,5.90
2022-09-13T21:46:17.039Z,6.73
2022-09-13T21:48:45.256Z,7.47
2022-09-13T21:51:16.273Z,7.67
2022-09-13T21:53:43.066Z,6.43
2022-09-13T21:56:10.600Z,7.60
2022-09-13T21:58:37.848Z,7.93
2022-09-13T22:01:07.493Z,8.77
2022-09-13T22:03:34.639Z,9.43
2022-09-13T22:06:01.556Z,4.57
2022-09-13T22:08:35.399Z,7.53
2022-09-13T22:11:09.001Z,6.13
2022-09-13T22:13:35.951Z,7.00
2022-09-13T22:16:03.461Z,10.73
2022-09-13T22:18:30.217Z,5.13
2022-09-13T22:20:56.857Z,8.00
2022-09-13T22:23:23.541Z,8.60
2022-09-13T22:25:52.156Z,7.43
2022-09-13T22:28:18.925Z,6.20
2022-09-13T22:30:45.803Z,5.83
2022-09-13T22:33:12.592Z,5.40
2022-09-13T22:35:39.689Z,6.90
2022-09-13T22:38:06.366Z,4.77
2022-09-13T22:40:32.982Z,6.10
2022-09-13T22:42:59.671Z,9.07
2022-09-13T22:45:26.253Z,6.47
2022-09-13T22:47:53.201Z,5.63
2022-09-13T22:50:19.843Z,5.70
2022-09-13T22:52:46.823Z,9.00
2022-09-13T22:55:13.450Z,8.33
2022-09-13T22:57:40.140Z,6.23
2022-09-13T23:00:07.080Z,6.27
2022-09-13T23:02:33.788Z,5.77
2022-09-13T23:05:00.395Z,7.47
2022-09-13T23:07:27.025Z,6.97
2022-09-13T23:09:53.642Z,8.83
2022-09-13T23:12:20.384Z,11.23
2022-09-13T23:14:47.268Z,6.37
2022-09-13T23:17:13.971Z,6.83
2022-09-13T23:19:40.650Z,6.43
2022-09-13T23:22:07.315Z,5.27
2022-09-13T23:24:34.132Z,8.70
2022-09-13T23:27:01.689Z,3.80
2022-09-13T23:29:28.514Z,6.43
2022-09-13T23:31:55.615Z,8.63
2022-09-13T23:34:23.543Z,6.00
2022-09-13T23:36:50.967Z,6.93
2022-09-13T23:39:18.141Z,7.27
2022-09-13T23:41:45.321Z,7.47
2022-09-13T23:44:12.020Z,6.93
2022-09-13T23:46:38.748Z,6.97
2022-09-13T23:49:05.483Z,6.80
2022-09-13T23:51:32.204Z,6.40
2022-09-13T23:54:00.589Z,8.07
2022-09-13T23:56:28.143Z,5.90
2022-09-13T23:59:00.389Z,4.90
